Time;durP1;ratioP1;P1;durP2;ratioP2;P2;SDS_P1;SDS_P2;PMS_P1;PMS_P2;Temp;Humidity;BMP_temperature;BMP_pressure;BME280_temperature;BME280_humidity;BME280_pressure;Samples;Min_cycle;Max_cycle;Signal;HPM_P1;HPM_P2
2022/02/23 00:00:52;;;;;;;41.90;14.70;;;;;;;1.52;75.99;98297.86;106162;1280;25261;-74
2022/02/23 00:03:19;;;;;;;41.80;14.40;;;;;;;1.52;75.73;98297.15;105951;1280;138066;-74
2022/02/23 00:05:47;;;;;;;36.50;14.70;;;;;;;1.51;75.64;98299.23;105935;1280;23293;-74
2022/02/23 00:08:13;;;;;;;39.60;15.10;;;;;;;1.49;75.64;98292.83;106008;1279;22691;-75
2022/02/23 00:10:40;;;;;;;35.70;13.70;;;;;;;1.48;75.59;98288.64;105772;1279;138557;-74
2022/02/23 00:13:07;;;;;;;42.50;14.00;;;;;;;1.50;75.63;98285.23;105603;1280;24323;-74
2022/02/23 00:15:34;;;;;;;49.50;15.50;;;;;;;1.51;75.58;98283.06;105606;1280;137462;-74
2022/02/23 00:18:02;;;;;;;44.90;14.70;;;;;;;1.53;75.65;98273.05;105548;1280;22566;-74
2022/02/23 00:20:43;;;;;;;38.20;13.80;;;;;;;1.54;75.43;98270.83;105482;1280;137599;-74
2022/02/23 00:23:24;;;;;;;40.70;14.00;;;;;;;1.54;75.37;98270.21;105549;1281;23976;-74
2022/02/23 00:26:06;;;;;;;38.60;13.80;;;;;;;1.52;75.36;98262.80;105738;1280;24440;-74
2022/02/23 00:28:33;;;;;;;32.30;13.00;;;;;;;1.50;75.18;98256.59;105744;1280;138049;-74
2022/02/23 00:31:00;;;;;;;35.40;13.60;;;;;;;1.48;75.12;98258.09;105809;1280;23015;-74
2022/02/23 00:33:27;;;;;;;37.20;14.40;;;;;;;1.44;75.20;98256.20;105781;1280;137546;-74
2022/02/23 00:35:54;;;;;;;41.30;13.30;;;;;;;1.43;75.17;98252.84;105944;1280;22572;-74
2022/02/23 00:38:21;;;;;;;38.30;13.20;;;;;;;1.42;75.11;98245.41;105968;1280;22704;-74
2022/02/23 00:40:49;;;;;;;31.30;12.60;;;;;;;1.42;74.99;98240.42;105809;1280;138096;-74
2022/02/23 00:43:16;;;;;;;33.80;12.90;;;;;;;1.42;75.12;98238.56;105849;1280;30401;-74
2022/02/23 00:45:43;;;;;;;33.90;12.60;;;;;;;1.42;74.98;98231.42;105935;1280;137465;-74
2022/02/23 00:48:10;;;;;;;33.60;12.70;;;;;;;1.40;74.88;98223.31;105865;1280;22554;-74
2022/02/23 00:50:37;;;;;;;34.80;13.90;;;;;;;1.40;74.82;98214.19;105889;1280;25267;-74
2022/02/23 00:53:04;;;;;;;41.60;13.60;;;;;;;1.39;74.88;98213.67;105929;1280;137577;-74
2022/02/23 00:55:31;;;;;;;44.40;13.80;;;;;;;1.37;74.71;98213.36;106086;1280;22538;-74
2022/02/23 00:58:12;;;;;;;32.20;12.70;;;;;;;1.36;74.58;98207.55;105823;1280;137893;-74
2022/02/23 01:00:39;;;;;;;35.10;12.90;;;;;;;1.36;74.53;98204.70;105942;1280;24310;-74
2022/02/23 01:03:06;;;;;;;38.90;13.30;;;;;;;1.37;74.53;98207.80;106054;1280;137496;-74
2022/02/23 01:05:35;;;;;;;31.10;12.10;;;;;;;1.39;74.53;98211.86;105927;1280;23952;-74
2022/02/23 01:08:03;;;;;;;43.10;13.40;;;;;;;1.39;74.37;98205.80;105865;1279;22567;-74
2022/02/23 01:10:30;;;;;;;30.30;12.00;;;;;;;1.39;74.41;98205.21;105896;1279;137484;-74
2022/02/23 01:12:58;;;;;;;31.70;12.30;;;;;;;1.38;74.48;98208.52;105952;1280;22950;-74
2022/02/23 01:15:26;;;;;;;34.90;12.50;;;;;;;1.37;74.39;98211.35;105840;1280;137588;-74
2022/02/23 01:17:53;;;;;;;33.10;12.30;;;;;;;1.36;74.37;98208.45;105956;1280;22553;-74
2022/02/23 01:20:20;;;;;;;34.60;11.80;;;;;;;1.34;74.23;98205.30;105872;1280;25336;-74
2022/02/23 01:22:47;;;;;;;37.80;13.40;;;;;;;1.32;74.09;98207.63;105778;1280;137773;-74
2022/02/23 01:25:14;;;;;;;35.10;12.90;;;;;;;1.31;74.06;98204.08;105770;1280;22589;-74
2022/02/23 01:27:41;;;;;;;35.90;11.90;;;;;;;1.31;74.13;98203.13;105833;1280;137966;-74
2022/02/23 01:30:08;;;;;;;37.90;12.50;;;;;;;1.33;74.17;98198.64;105951;1279;22572;-74
2022/02/23 01:32:35;;;;;;;31.50;11.30;;;;;;;1.35;74.02;98194.11;106131;1280;22637;-74
2022/02/23 01:35:02;;;;;;;35.30;12.80;;;;;;;1.36;74.13;98185.04;105763;1280;137330;-74
2022/02/23 01:37:29;;;;;;;39.70;13.60;;;;;;;1.36;73.93;98173.73;106034;1280;24377;-74
2022/02/23 01:39:56;;;;;;;33.40;12.20;;;;;;;1.36;73.87;98171.09;105756;1280;137894;-74
2022/02/23 01:42:24;;;;;;;34.40;12.40;;;;;;;1.35;73.95;98165.67;106187;1280;23974;-74
2022/02/23 01:44:50;;;;;;;38.70;12.20;;;;;;;1.33;73.81;98159.43;105818;1280;140419;-74
2022/02/23 01:47:17;;;;;;;31.60;12.80;;;;;;;1.32;73.82;98159.20;105953;1280;24973;-74
2022/02/23 01:49:44;;;;;;;31.70;12.10;;;;;;;1.30;73.86;98154.12;105998;1280;24272;-74
2022/02/23 01:52:13;;;;;;;34.50;12.80;;;;;;;1.30;73.95;98152.97;105813;1280;137965;-74
2022/02/23 01:54:40;;;;;;;36.10;12.40;;;;;;;1.30;73.80;98148.52;106071;1280;22602;-74
2022/02/23 01:57:07;;;;;;;33.40;12.70;;;;;;;1.30;73.88;98151.20;105754;1280;137807;-74
2022/02/23 01:59:34;;;;;;;29.20;13.10;;;;;;;1.29;73.94;98149.88;105947;1280;23923;-74
2022/02/23 02:02:01;;;;;;;33.50;12.90;;;;;;;1.27;73.98;98146.88;106003;1280;25354;-74
2022/02/23 02:04:28;;;;;;;33.30;12.50;;;;;;;1.26;73.91;98151.41;105963;1280;137551;-74
2022/02/23 02:06:55;;;;;;;35.50;13.20;;;;;;;1.25;74.16;98152.64;105938;1280;22586;-74
2022/02/23 02:09:22;;;;;;;31.70;13.50;;;;;;;1.21;74.25;98145.42;105915;1280;137904;-74
2022/02/23 02:11:49;;;;;;;36.60;13.10;;;;;;;1.22;74.21;98149.40;105921;1280;25355;-74
2022/02/23 02:14:16;;;;;;;29.40;11.80;;;;;;;1.23;74.16;98152.17;105971;1280;25468;-74
2022/02/23 02:16:43;;;;;;;31.00;10.90;;;;;;;1.23;74.27;98145.65;106031;1280;138070;-75
2022/02/23 02:19:10;;;;;;;24.70;9.10;;;;;;;1.24;74.03;98143.21;105870;1279;22884;-74
2022/02/23 02:22:06;;;;;;;23.20;9.00;;;;;;;1.25;73.95;98135.22;105936;1279;137695;-75
2022/02/23 02:24:36;;;;;;;21.40;8.30;;;;;;;1.26;73.87;98131.39;105922;1280;22658;-76
2022/02/23 02:27:06;;;;;;;19.90;7.80;;;;;;;1.26;73.72;98121.95;105770;1280;138534;-76
2022/02/23 02:29:34;;;;;;;22.80;6.90;;;;;;;1.25;73.64;98115.41;105839;1280;25432;-76
2022/02/23 02:32:03;;;;;;;20.40;6.60;;;;;;;1.24;73.65;98111.52;105981;1279;22518;-76
2022/02/23 02:34:46;;;;;;;24.10;8.20;;;;;;;1.21;73.41;98101.89;105837;1280;137406;-74
2022/02/23 02:37:14;;;;;;;24.80;7.80;;;;;;;1.19;73.44;98100.66;105862;1280;22855;-74
2022/02/23 02:39:41;;;;;;;24.10;7.40;;;;;;;1.14;73.44;98100.34;105809;1280;137883;-73
2022/02/23 02:42:08;;;;;;;21.10;6.40;;;;;;;1.11;73.37;98102.64;105992;1280;25261;-74
2022/02/23 02:44:36;;;;;;;21.90;6.90;;;;;;;1.10;73.44;98105.39;105868;1280;25311;-72
2022/02/23 02:47:19;;;;;;;21.10;7.20;;;;;;;1.11;73.50;98106.21;105989;1280;137340;-73
2022/02/23 02:49:46;;;;;;;17.90;8.60;;;;;;;1.12;73.45;98110.44;105959;1280;25369;-74
2022/02/23 02:52:13;;;;;;;22.70;7.80;;;;;;;1.11;73.54;98103.88;105916;1280;137562;-73
2022/02/23 02:54:40;;;;;;;19.00;7.80;;;;;;;1.11;73.48;98105.65;105909;1280;22576;-73
2022/02/23 02:57:07;;;;;;;21.40;7.70;;;;;;;1.10;73.44;98097.96;105873;1280;137530;-74
2022/02/23 02:59:34;;;;;;;20.40;6.60;;;;;;;1.07;73.20;98093.27;105872;1280;22543;-74
2022/02/23 03:02:01;;;;;;;18.80;5.90;;;;;;;1.03;73.21;98092.75;106030;1280;25365;-74
2022/02/23 03:04:28;;;;;;;16.40;6.10;;;;;;;0.98;73.26;98095.51;105772;1280;138386;-73
2022/02/23 03:06:57;;;;;;;21.90;7.00;;;;;;;0.94;73.34;98100.87;105937;1280;24261;-75
2022/02/23 03:09:38;;;;;;;22.50;7.00;;;;;;;0.92;73.38;98107.70;105703;1280;138741;-76
2022/02/23 03:12:05;;;;;;;19.10;6.90;;;;;;;0.90;73.35;98112.88;105801;1280;25622;-76
2022/02/23 03:14:33;;;;;;;20.40;8.10;;;;;;;0.89;73.35;98107.91;105962;1280;23417;-74
2022/02/23 03:17:00;;;;;;;21.70;7.10;;;;;;;0.87;73.48;98107.45;106065;1280;137493;-74
2022/02/23 03:19:27;;;;;;;23.90;7.20;;;;;;;0.84;73.54;98102.43;105826;1280;24225;-74
2022/02/23 03:21:54;;;;;;;17.70;6.90;;;;;;;0.80;73.75;98094.27;105971;1280;139160;-75
2022/02/23 03:24:21;;;;;;;19.50;7.20;;;;;;;0.80;73.61;98097.93;105939;1280;25267;-74
2022/02/23 03:26:48;;;;;;;19.50;7.10;;;;;;;0.77;73.78;98097.61;105995;1280;24265;-74
2022/02/23 03:29:15;;;;;;;20.50;6.50;;;;;;;0.75;73.68;98095.53;105811;1280;138469;-75
2022/02/23 03:31:42;;;;;;;19.70;7.40;;;;;;;0.77;73.95;98099.42;105989;1280;25255;-75
2022/02/23 03:34:09;;;;;;;20.20;7.10;;;;;;;0.77;74.01;98095.08;105713;1280;138168;-74
2022/02/23 03:36:36;;;;;;;22.80;6.70;;;;;;;0.79;74.17;98097.77;105817;1281;22819;-74
2022/02/23 03:39:04;;;;;;;21.80;7.30;;;;;;;0.80;74.15;98094.79;105765;1280;137952;-74
2022/02/23 03:41:31;;;;;;;23.60;7.00;;;;;;;0.80;74.22;98099.63;105926;1280;25235;-74
2022/02/23 03:43:58;;;;;;;22.30;7.70;;;;;;;0.80;74.23;98096.16;105945;1280;25270;-74
2022/02/23 03:46:25;;;;;;;24.40;7.40;;;;;;;0.81;74.34;98096.41;105963;1280;137550;-74
2022/02/23 03:48:52;;;;;;;27.20;8.30;;;;;;;0.81;74.07;98095.30;105999;1280;22547;-74
2022/02/23 03:51:19;;;;;;;18.90;6.80;;;;;;;0.83;74.13;98098.33;105978;1280;138479;-74
2022/02/23 03:53:46;;;;;;;21.00;8.00;;;;;;;0.86;74.34;98099.02;106011;1280;24207;-74
2022/02/23 03:58:58;;;;;;;21.20;8.40;;;;;;;0.93;74.46;98096.36;105737;1280;137430;-74
2022/02/23 04:01:25;;;;;;;22.00;7.80;;;;;;;0.95;74.50;98099.64;106005;1280;23030;-74
2022/02/23 04:03:52;;;;;;;21.60;7.70;;;;;;;0.96;74.39;98098.13;105731;1281;137470;-74
2022/02/23 04:06:19;;;;;;;23.30;8.10;;;;;;;0.97;74.55;98104.23;105949;1280;24255;-74
2022/02/23 04:08:46;;;;;;;25.60;8.40;;;;;;;0.98;74.65;98107.18;106048;1280;22689;-74
2022/02/23 04:11:13;;;;;;;19.30;7.40;;;;;;;0.98;74.61;98111.75;105909;1280;137911;-76
2022/02/23 04:13:40;;;;;;;18.30;6.40;;;;;;;0.99;74.78;98111.47;105980;1280;22706;-77
2022/02/23 04:16:07;;;;;;;19.90;7.30;;;;;;;1.01;74.89;98110.35;105916;1280;137925;-74
2022/02/23 04:18:34;;;;;;;14.50;5.70;;;;;;;1.03;75.03;98110.94;106010;1280;25333;-74
2022/02/23 04:21:01;;;;;;;15.90;6.10;;;;;;;1.06;75.36;98115.64;105769;1280;137523;-74
2022/02/23 04:23:28;;;;;;;15.40;5.90;;;;;;;1.07;75.60;98119.35;105775;1280;22553;-74
2022/02/23 04:25:55;;;;;;;16.90;6.40;;;;;;;1.08;75.89;98123.11;105968;1280;22547;-74
2022/02/23 04:28:25;;;;;;;20.80;6.60;;;;;;;1.07;76.32;98124.66;105774;1280;138006;-74
2022/02/23 04:30:53;;;;;;;16.40;6.30;;;;;;;1.06;76.85;98127.02;105858;1280;25339;-74
2022/02/23 04:33:20;;;;;;;13.70;5.30;;;;;;;1.08;77.16;98126.29;105794;1280;138187;-74
2022/02/23 04:35:48;;;;;;;23.10;7.00;;;;;;;1.09;77.53;98130.19;105855;1280;22550;-74
2022/02/23 04:38:15;;;;;;;14.10;6.20;;;;;;;1.11;77.76;98127.17;105905;1280;26190;-74
2022/02/23 04:40:43;;;;;;;21.20;7.60;;;;;;;1.12;78.24;98129.74;105783;1280;137626;-74
2022/02/23 04:43:11;;;;;;;24.20;7.50;;;;;;;1.12;79.00;98131.52;105821;1280;25595;-74
2022/02/23 04:45:38;;;;;;;16.50;6.90;;;;;;;1.13;79.36;98137.06;105556;1280;138174;-74
2022/02/23 04:48:06;;;;;;;22.00;7.40;;;;;;;1.16;79.95;98131.73;105935;1280;30269;-74
2022/02/23 04:50:34;;;;;;;18.70;6.70;;;;;;;1.20;80.81;98131.05;105909;1280;23389;-73
2022/02/23 04:53:01;;;;;;;13.20;5.30;;;;;;;1.23;81.15;98135.33;105753;1280;137669;-73
2022/02/23 04:55:28;;;;;;;15.60;6.00;;;;;;;1.25;81.96;98134.27;105945;1280;25256;-74
2022/02/23 04:57:55;;;;;;;21.30;6.70;;;;;;;1.28;82.49;98135.16;105536;1281;137999;-74
2022/02/23 05:00:22;;;;;;;18.20;6.50;;;;;;;1.32;83.19;98137.38;105779;1280;22719;-74
2022/02/23 05:02:49;;;;;;;13.60;5.70;;;;;;;1.39;84.14;98134.80;105821;1280;22715;-76
2022/02/23 05:05:16;;;;;;;12.80;4.40;;;;;;;1.47;84.68;98137.13;105828;1280;137432;-75
2022/02/23 05:07:43;;;;;;;9.90;4.10;;;;;;;1.56;85.13;98139.44;105838;1280;22840;-74
2022/02/23 05:10:10;;;;;;;8.40;4.10;;;;;;;1.64;85.72;98142.50;105694;1280;137354;-74
2022/02/23 05:12:37;;;;;;;12.20;4.50;;;;;;;1.72;86.17;98140.95;105869;1279;22564;-74
2022/02/23 05:15:05;;;;;;;15.10;4.60;;;;;;;1.80;86.22;98149.96;105755;1280;139002;-74
2022/02/23 05:17:32;;;;;;;6.00;3.10;;;;;;;1.87;86.61;98154.77;105807;1280;24293;-73
2022/02/23 05:19:59;;;;;;;10.50;4.10;;;;;;;1.95;86.97;98155.77;105827;1280;22578;-73
2022/02/23 05:22:26;;;;;;;10.50;3.70;;;;;;;2.00;86.95;98157.19;105741;1280;137284;-74
2022/02/23 05:24:53;;;;;;;6.40;3.30;;;;;;;2.03;86.96;98161.42;105756;1280;24239;-73
2022/02/23 05:27:20;;;;;;;8.50;3.70;;;;;;;2.06;87.08;98163.61;105566;1280;137718;-74
2022/02/23 05:29:47;;;;;;;8.60;4.40;;;;;;;2.09;87.23;98167.33;105812;1280;22696;-73
2022/02/23 05:32:14;;;;;;;6.30;4.10;;;;;;;2.13;87.23;98170.29;105917;1280;23182;-73
2022/02/23 05:34:55;;;;;;;8.20;3.60;;;;;;;2.17;87.20;98175.43;105700;1280;137810;-73
2022/02/23 05:37:22;;;;;;;9.80;3.40;;;;;;;2.20;87.31;98178.27;105840;1280;24264;-73
2022/02/23 05:39:49;;;;;;;8.90;3.70;;;;;;;2.22;87.29;98183.19;105687;1280;137228;-73
2022/02/23 05:42:16;;;;;;;8.70;3.70;;;;;;;2.24;87.27;98184.61;105735;1281;24255;-73
2022/02/23 05:44:43;;;;;;;9.70;3.80;;;;;;;2.27;87.46;98192.77;105819;1280;25593;-73
2022/02/23 05:47:10;;;;;;;6.90;3.50;;;;;;;2.29;87.42;98193.73;105773;1280;137647;-73
2022/02/23 05:49:37;;;;;;;10.10;3.40;;;;;;;2.32;87.49;98197.96;105888;1280;22741;-73
2022/02/23 05:52:04;;;;;;;6.30;3.60;;;;;;;2.33;87.46;98193.96;105732;1280;137464;-73
2022/02/23 05:54:31;;;;;;;5.80;3.50;;;;;;;2.34;87.65;98195.09;105933;1280;24428;-73
2022/02/23 05:56:59;;;;;;;8.10;4.00;;;;;;;2.37;87.65;98202.48;105783;1280;22743;-73
2022/02/23 05:59:26;;;;;;;6.80;3.50;;;;;;;2.39;87.64;98202.16;105850;1280;137757;-73
2022/02/23 06:01:53;;;;;;;9.40;3.80;;;;;;;2.41;87.76;98210.83;105767;1280;24228;-73
2022/02/23 06:04:20;;;;;;;8.00;3.70;;;;;;;2.41;87.74;98216.20;105612;1280;137184;-73
2022/02/23 06:06:47;;;;;;;8.90;3.50;;;;;;;2.42;87.84;98211.04;105766;1280;22547;-73
2022/02/23 06:09:14;;;;;;;8.60;4.10;;;;;;;2.43;87.91;98208.73;105846;1280;138430;-73
2022/02/23 06:11:43;;;;;;;11.50;3.90;;;;;;;2.46;87.93;98214.29;105878;1279;22574;-73
2022/02/23 06:14:10;;;;;;;8.70;4.80;;;;;;;2.50;87.99;98222.44;105830;1280;22567;-73
2022/02/23 06:16:37;;;;;;;8.30;4.10;;;;;;;2.51;88.01;98238.41;105673;1280;137476;-73
2022/02/23 06:19:04;;;;;;;11.10;4.70;;;;;;;2.53;88.13;98242.35;105754;1280;24404;-73
2022/02/23 06:21:31;;;;;;;10.90;6.10;;;;;;;2.55;88.10;98241.01;105671;1280;138291;-73
2022/02/23 06:23:58;;;;;;;14.40;4.60;;;;;;;2.60;88.14;98245.69;105822;1280;22573;-73
2022/02/23 06:26:26;;;;;;;8.60;3.70;;;;;;;2.64;88.11;98259.36;105796;1280;22779;-73
2022/02/23 06:28:53;;;;;;;8.30;3.60;;;;;;;2.66;88.68;98262.77;105900;1278;137401;-74
2022/02/23 06:31:20;;;;;;;8.50;3.80;;;;;;;2.71;88.69;98268.17;106033;1280;24380;-73
2022/02/23 06:33:47;;;;;;;10.90;4.60;;;;;;;2.74;88.79;98272.33;105734;1280;137738;-73
2022/02/23 06:36:16;;;;;;;11.10;4.70;;;;;;;2.79;88.99;98276.40;105914;1280;22560;-74
2022/02/23 06:38:44;;;;;;;7.80;3.70;;;;;;;2.84;88.70;98275.92;106025;1280;25478;-73
2022/02/23 06:41:15;;;;;;;11.30;4.80;;;;;;;2.88;88.77;98281.54;105818;1280;138151;-74
2022/02/23 06:43:44;;;;;;;9.00;4.40;;;;;;;2.91;88.85;98285.36;105806;1280;25369;-73
2022/02/23 06:46:12;;;;;;;11.30;5.40;;;;;;;2.94;88.88;98284.74;105909;1280;137742;-73
2022/02/23 06:48:43;;;;;;;10.00;5.70;;;;;;;2.96;88.97;98295.85;106033;1280;22606;-73
2022/02/23 06:51:16;;;;;;;12.70;4.50;;;;;;;3.00;88.92;98299.09;105778;1280;138501;-73
2022/02/23 06:53:47;;;;;;;9.20;5.00;;;;;;;3.04;88.87;98298.95;105857;1280;22547;-73
2022/02/23 06:56:28;;;;;;;8.20;5.20;;;;;;;3.06;88.75;98306.77;105972;1280;25305;-74
2022/02/23 06:58:56;;;;;;;12.40;6.10;;;;;;;3.06;88.76;98309.67;105872;1280;137134;-73
2022/02/23 07:01:24;;;;;;;13.60;5.50;;;;;;;3.07;88.81;98316.55;105862;1280;23186;-73
2022/02/23 07:03:53;;;;;;;13.10;6.10;;;;;;;3.09;88.69;98322.35;106173;1280;138687;-73
2022/02/23 07:06:20;;;;;;;;;;;;;;;3.13;88.79;98324.35;106281;1280;22555;-73
2022/02/23 07:08:50;;;;;;;11.40;5.00;;;;;;;3.16;88.78;98336.38;105932;1280;25570;-73
2022/02/23 07:11:34;;;;;;;14.50;6.40;;;;;;;3.16;88.75;98354.96;106147;1280;137408;-73
2022/02/23 07:14:04;;;;;;;11.50;6.40;;;;;;;3.16;88.79;98360.17;106209;1279;22559;-73
2022/02/23 07:16:31;;;;;;;16.10;6.90;;;;;;;3.15;88.71;98360.14;106517;1280;138504;-74
2022/02/23 07:18:59;;;;;;;12.30;7.20;;;;;;;3.16;88.66;98370.73;105963;1280;22733;-74
2022/02/23 07:21:27;;;;;;;10.60;6.00;;;;;;;3.16;88.69;98376.20;105976;1280;138786;-74
2022/02/23 07:23:55;;;;;;;11.60;6.10;;;;;;;3.14;88.72;98389.14;106191;1280;22569;-74
2022/02/23 07:26:23;;;;;;;15.20;6.70;;;;;;;3.13;88.75;98395.70;106239;1280;22617;-74
2022/02/23 07:28:50;;;;;;;13.50;6.70;;;;;;;3.15;88.95;98397.92;105969;1280;138611;-73
2022/02/23 07:31:19;;;;;;;9.30;5.30;;;;;;;3.19;88.89;98396.95;106122;1280;29253;-74
2022/02/23 07:33:48;;;;;;;12.30;4.70;;;;;;;3.23;88.42;98397.88;105657;1280;137822;-73
2022/02/23 07:36:15;;;;;;;7.20;3.00;;;;;;;3.27;88.05;98408.80;105873;1280;24250;-74
2022/02/23 07:38:47;;;;;;;6.70;3.50;;;;;;;3.30;87.62;98422.30;105980;1280;22760;-73
2022/02/23 07:41:21;;;;;;;6.20;3.40;;;;;;;3.32;87.41;98431.87;105834;1280;137929;-74
2022/02/23 07:43:50;;;;;;;6.30;2.80;;;;;;;3.37;87.32;98433.15;105074;1280;1282886;-73
2022/02/23 07:46:19;;;;;;;4.40;2.40;;;;;;;3.42;87.02;98445.30;105876;1280;137967;-74
2022/02/23 07:48:47;;;;;;;4.70;2.70;;;;;;;3.37;86.80;98452.12;105763;1281;23992;-74
2022/02/23 07:51:16;;;;;;;4.70;2.10;;;;;;;3.33;86.48;98458.63;105935;1280;25525;-74
2022/02/23 07:53:45;;;;;;;3.20;1.80;;;;;;;3.27;86.14;98464.15;106049;1280;137816;-73
2022/02/23 07:56:12;;;;;;;3.00;1.60;;;;;;;3.18;86.26;98468.23;105995;1280;22586;-74
2022/02/23 07:58:39;;;;;;;3.60;1.50;;;;;;;3.08;85.88;98468.86;105825;1280;137091;-73
2022/02/23 08:01:07;;;;;;;5.50;1.40;;;;;;;2.95;85.91;98462.60;105897;1280;25323;-73
2022/02/23 08:03:36;;;;;;;4.40;1.60;;;;;;;2.80;86.12;98471.89;105787;1280;138770;-73
2022/02/23 08:06:04;;;;;;;7.00;1.90;;;;;;;2.70;86.36;98469.98;105793;1281;24438;-76
2022/02/23 08:08:31;;;;;;;6.40;2.20;;;;;;;2.64;86.47;98477.79;105865;1280;22640;-76
2022/02/23 08:10:58;;;;;;;5.50;1.90;;;;;;;2.61;86.73;98480.91;105917;1283;137171;-74
2022/02/23 08:13:26;;;;;;;10.50;2.20;;;;;;;2.61;86.72;98480.83;106021;1280;25321;-73
2022/02/23 08:21:41;;;;;;;5.00;1.80;;;;;;;2.82;86.23;98499.00;106059;1280;137632;-74
2022/02/23 08:24:08;;;;;;;7.80;2.00;;;;;;;2.85;85.71;98510.05;106232;1281;23927;-73
2022/02/23 08:26:42;;;;;;;10.80;2.60;;;;;;;2.89;85.52;98511.03;105850;1281;22550;-74
2022/02/23 08:29:09;;;;;;;6.80;1.80;;;;;;;2.99;85.77;98508.53;105688;1281;138025;-73
2022/02/23 08:31:37;;;;;;;8.20;1.70;;;;;;;3.10;85.83;98509.52;106150;1280;24373;-74
2022/02/23 08:34:05;;;;;;;10.00;1.90;;;;;;;3.21;85.38;98507.38;105840;1280;137315;-74
2022/02/23 08:36:32;;;;;;;15.30;3.50;;;;;;;3.32;85.36;98510.30;105933;1281;22653;-75
2022/02/23 08:39:15;;;;;;;12.00;2.90;;;;;;;3.41;84.79;98520.80;105956;1281;22651;-74
2022/02/23 08:41:56;;;;;;;14.10;2.60;;;;;;;3.53;84.83;98527.66;106004;1280;137733;-74
2022/02/23 08:44:23;;;;;;;10.10;2.80;;;;;;;3.66;84.36;98528.48;105926;1281;22566;-74
2022/02/23 08:47:05;;;;;;;8.50;2.10;;;;;;;3.83;83.71;98536.56;105812;1281;137293;-74
2022/02/23 08:49:46;;;;;;;6.30;2.00;;;;;;;3.98;82.98;98543.36;105855;1281;22633;-75
2022/02/23 08:52:13;;;;;;;12.30;2.70;;;;;;;4.10;82.17;98543.83;105839;1280;138921;-74
2022/02/23 08:54:40;;;;;;;12.30;2.70;;;;;;;4.19;81.10;98553.23;106105;1281;25397;-74
2022/02/23 08:57:08;;;;;;;11.00;3.10;;;;;;;4.26;81.13;98551.88;106049;1281;22619;-74
2022/02/23 08:59:36;;;;;;;14.50;2.70;;;;;;;4.35;81.19;98558.13;105932;1283;137912;-74
2022/02/23 09:02:04;;;;;;;13.00;2.70;;;;;;;4.49;81.14;98557.14;106332;1281;22719;-74
2022/02/23 09:04:31;;;;;;;10.90;2.20;;;;;;;4.64;80.27;98563.48;105894;1281;137585;-74
2022/02/23 09:06:58;;;;;;;10.70;2.20;;;;;;;4.75;80.25;98567.03;105909;1280;23047;-74
2022/02/23 09:09:26;;;;;;;15.60;3.20;;;;;;;4.84;79.66;98570.45;106057;1281;22573;-74
2022/02/23 09:11:53;;;;;;;8.80;2.30;;;;;;;4.86;79.55;98569.21;105678;1281;137716;-74
2022/02/23 09:14:20;;;;;;;11.40;2.20;;;;;;;4.90;78.58;98569.21;105743;1281;24747;-74
2022/02/23 09:17:02;;;;;;;14.80;2.60;;;;;;;4.94;77.46;98577.70;105651;1281;137832;-74
2022/02/23 09:19:29;;;;;;;11.80;2.50;;;;;;;4.94;77.67;98579.07;105773;1280;25378;-74
2022/02/23 09:21:56;;;;;;;6.60;1.80;;;;;;;4.96;77.85;98578.90;105607;1281;137533;-74
2022/02/23 09:24:23;;;;;;;7.60;1.70;;;;;;;5.05;76.43;98576.55;105841;1280;22570;-74
2022/02/23 09:26:50;;;;;;;11.20;2.40;;;;;;;5.11;75.10;98578.49;105792;1281;25325;-74
2022/02/23 09:29:17;;;;;;;10.80;1.80;;;;;;;5.15;75.47;98580.58;105847;1280;137322;-74
2022/02/23 09:31:44;;;;;;;10.30;1.50;;;;;;;5.18;74.39;98576.46;105698;1281;22547;-74
2022/02/23 09:34:13;;;;;;;10.10;1.90;;;;;;;5.24;74.37;98575.55;105909;1281;137864;-74
2022/02/23 09:36:41;;;;;;;11.20;2.30;;;;;;;5.34;74.70;98580.45;105793;1281;25355;-75
2022/02/23 09:39:09;;;;;;;8.60;2.30;;;;;;;5.43;73.27;98585.14;105852;1281;24346;-74
2022/02/23 09:41:39;;;;;;;10.70;2.70;;;;;;;5.53;73.14;98581.07;105729;1281;137409;-74
2022/02/23 09:44:08;;;;;;;6.80;1.50;;;;;;;5.64;73.31;98577.17;105828;1281;22564;-77
2022/02/23 09:46:35;;;;;;;6.40;1.50;;;;;;;5.68;72.29;98584.41;105684;1281;137160;-75
2022/02/23 09:49:03;;;;;;;8.90;2.10;;;;;;;5.63;71.76;98588.36;105921;1281;22548;-74
2022/02/23 09:51:30;;;;;;;10.60;1.90;;;;;;;5.61;72.84;98593.20;105834;1281;22576;-76
2022/02/23 09:54:12;;;;;;;10.30;2.40;;;;;;;5.56;72.90;98598.02;105769;1280;137448;-76
2022/02/23 09:56:39;;;;;;;6.20;1.90;;;;;;;5.49;72.08;98601.89;105655;1281;22624;-76
2022/02/23 09:59:07;;;;;;;6.10;1.70;;;;;;;5.48;72.43;98595.78;105848;1280;137301;-76
2022/02/23 10:01:34;;;;;;;7.40;2.10;;;;;;;5.50;72.72;98591.20;105867;1281;25566;-81
2022/02/23 10:04:19;;;;;;;6.50;2.20;;;;;;;5.55;72.49;98590.25;105722;1281;137345;-77
2022/02/23 10:07:02;;;;;;;6.40;1.50;;;;;;;5.60;72.58;98594.03;105770;1278;24298;-77
2022/02/23 10:09:52;;;;;;;5.70;2.10;;;;;;;5.71;73.02;98602.52;105981;1278;25257;-74
2022/02/23 10:12:26;;;;;;;11.60;2.00;;;;;;;5.88;73.84;98601.34;105729;1278;137406;-76
2022/02/23 10:15:12;;;;;;;9.50;2.00;;;;;;;6.05;73.62;98613.59;106045;1277;24227;-75
2022/02/23 10:17:46;;;;;;;6.80;2.00;;;;;;;6.18;72.41;98614.39;105740;1280;137145;-74
2022/02/23 10:20:25;;;;;;;5.10;1.40;;;;;;;6.22;70.63;98614.21;105644;1280;25585;-74
2022/02/23 10:22:58;;;;;;;10.10;2.30;;;;;;;6.25;71.00;98617.49;105810;1281;137513;-73
2022/02/23 10:25:42;;;;;;;7.20;1.70;;;;;;;6.31;70.34;98620.52;106082;1277;22601;-74
2022/02/23 10:28:20;;;;;;;9.00;2.00;;;;;;;6.36;70.90;98620.08;106037;1278;137228;-74
2022/02/23 10:30:50;;;;;;;9.70;1.80;;;;;;;6.40;69.10;98623.26;105643;1278;24352;-74
2022/02/23 10:33:26;;;;;;;10.10;1.70;;;;;;;6.46;68.95;98628.86;106664;1277;22589;-74
2022/02/23 10:35:55;;;;;;;13.50;1.90;;;;;;;6.59;68.45;98630.42;106370;1277;137259;-74
2022/02/23 10:38:41;;;;;;;4.40;1.10;;;;;;;6.64;65.81;98629.41;105851;1281;22555;-74
2022/02/23 10:41:24;;;;;;;8.40;2.00;;;;;;;6.57;67.15;98638.43;105779;1281;137309;-74
2022/02/23 10:43:51;;;;;;;11.00;2.70;;;;;;;6.49;66.68;98634.27;106184;1281;24302;-75
2022/02/23 10:46:35;;;;;;;12.60;2.00;;;;;;;6.42;66.22;98636.27;105788;1277;137511;-74
2022/02/23 10:49:02;;;;;;;8.30;2.20;;;;;;;6.40;66.55;98639.41;106060;1278;23773;-74
2022/02/23 10:51:36;;;;;;;8.00;1.90;;;;;;;6.44;65.75;98636.11;105947;1277;22581;-74
2022/02/23 10:54:08;;;;;;;7.20;1.70;;;;;;;6.41;65.23;98640.91;105707;1278;137453;-77
2022/02/23 10:56:43;;;;;;;8.80;1.70;;;;;;;6.38;65.62;98645.13;105767;1281;25506;-74
2022/02/23 10:59:24;;;;;;;10.60;1.80;;;;;;;6.38;65.90;98651.02;105787;1281;137297;-75
2022/02/23 11:01:53;;;;;;;11.20;2.00;;;;;;;6.46;65.65;98647.59;106022;1281;24227;-74
2022/02/23 11:04:24;;;;;;;12.30;1.80;;;;;;;6.41;66.80;98653.52;105730;1279;137572;-74
2022/02/23 11:07:05;;;;;;;6.30;1.80;;;;;;;6.37;66.87;98649.36;106000;1277;30928;-76
2022/02/23 11:09:34;;;;;;;7.10;1.70;;;;;;;6.38;66.78;98650.04;105824;1280;22607;-74
2022/02/23 11:12:03;;;;;;;8.50;2.70;;;;;;;6.33;65.85;98653.41;106023;1278;138522;-75
2022/02/23 11:14:45;;;;;;;10.20;2.50;;;;;;;6.25;66.30;98652.27;105902;1277;22703;-75
2022/02/23 11:17:13;;;;;;;6.40;2.30;;;;;;;6.27;67.11;98658.77;105793;1280;137643;-74
2022/02/23 11:19:45;;;;;;;9.90;1.70;;;;;;;6.37;66.84;98652.65;105758;1280;22860;-76
2022/02/23 11:22:13;;;;;;;8.50;2.40;;;;;;;6.53;66.48;98670.95;105876;1280;137687;-76
2022/02/23 11:24:55;;;;;;;9.70;2.40;;;;;;;6.53;65.74;98659.05;105929;1280;22554;-74
2022/02/23 11:27:25;;;;;;;10.70;2.20;;;;;;;6.45;65.09;98662.32;105924;1277;25436;-74
2022/02/23 11:30:05;;;;;;;7.70;2.10;;;;;;;6.44;65.61;98653.42;105913;1277;137937;-75
2022/02/23 11:32:39;;;;;;;5.80;1.80;;;;;;;6.49;65.97;98655.86;105907;1277;25267;-74
2022/02/23 11:35:07;;;;;;;9.20;2.60;;;;;;;6.58;65.85;98652.45;105855;1277;137182;-74
2022/02/23 11:37:36;;;;;;;7.20;1.80;;;;;;;6.62;66.75;98658.52;105714;1280;22570;-76
2022/02/23 11:40:04;;;;;;;11.60;3.00;;;;;;;6.61;65.95;98659.98;105706;1280;138438;-74